ěÝzenÝ letovÚho provozu ╚eskÚ republiky
Letiste: LKLN Aktualizace: 10.08.2022 17:55:32  UTC
 METAR LKLN 10.08. 18:00 ...
METAR LKLN 101800Z AUTO 06005KT 350V100 CAVOK 23/08 Q1024=